Leander — DD5959 — position and weather

sailwx.info

Track history (hours):
 
Tides and Currents Weather Stations Pressure Air Temp Water Temp Dewpoint Dewpoint Depression Visibility Wind Speed Wind Dir Waves Ship Positions

Leander

Last reported at 2015-Jul-22 14:05 UTC. Time now 2015-Jul-29 09:26 UTC.
Position N 37°05' W 008°07'.

Length 15 m.

Type: Sailing vessel. MMSI: 211480070.

Date/timePositionNaut miles runAvg speedWind from/ knotsBaromVisibWave heightAir tempDewpointWater temp
2015-Jul-22 14:05N 37°05' W 008°07'1 1.1
2015-Jul-22 13:32N 37°04' W 008°07'4 3.7
2015-Jul-22 12:32N 37°00' W 008°07'3 2.9
2015-Jul-22 11:33N 37°01' W 008°11'5 4.9
2015-Jul-22 10:33N 37°05' W 008°15'0 0.0
2015-Jul-21 18:27N 37°05' W 008°16'1 1.7
2015-Jul-21 17:33N 37°04' W 008°15'7 7.1
2015-Jul-21 16:33N 36°57' W 008°14'6 6.0
2015-Jul-21 15:33N 36°51' W 008°11'3 3.3
2015-Jul-21 14:33N 36°54' W 008°09'1 1.2
2015-Jul-21 13:29N 36°55' W 008°10'5 4.7
2015-Jul-21 12:28N 36°59' W 008°08'4 4.4
2015-Jul-21 11:33N 37°03' W 008°08'1 1.2
2015-Jul-21 10:32N 37°05' W 008°07'1 0.0
2015-Jul-20 06:12N 37°04' W 008°07'3 5.2
2015-Jul-20 05:32N 37°03' W 008°12'6 6.1
2015-Jul-20 04:32N 37°01' W 008°19'5 5.2
2015-Jul-20 03:31N 36°59' W 008°25'4 4.0
2015-Jul-20 02:30N 36°58' W 008°30'5 5.3
2015-Jul-20 01:29N 36°55' W 008°36'7 7.3
2015-Jul-20 00:29N 36°53' W 008°44'15 7.5
2015-Jul-19 22:33N 36°46' W 009°00'32 7.8
2015-Jul-19 18:23N 36°26' W 009°33'  
2015-Jul-17 05:18N 33°10' W 015°34'  
Track history (hours):
 
Tides and Currents Weather Stations Pressure Air Temp Water Temp Dewpoint Dewpoint Depression Visibility Wind Speed Wind Dir Waves Ship Positions

Leander

Last reported at 2015-Jul-22 14:05 UTC. Time now 2015-Jul-29 09:26 UTC.
Position N 37°05' W 008°07'.

Length 15 m.

Type: Sailing vessel. MMSI: 211480070.

Date/timePositionNaut miles runAvg speedWind from/ knotsBaromVisibWave heightAir tempDewpointWater temp
2015-Jul-22 14:05N 37°05' W 008°07'1 1.1
2015-Jul-22 13:32N 37°04' W 008°07'4 3.7
2015-Jul-22 12:32N 37°00' W 008°07'3 2.9
2015-Jul-22 11:33N 37°01' W 008°11'5 4.9
2015-Jul-22 10:33N 37°05' W 008°15'0 0.0
2015-Jul-21 18:27N 37°05' W 008°16'1 1.7
2015-Jul-21 17:33N 37°04' W 008°15'7 7.1
2015-Jul-21 16:33N 36°57' W 008°14'6 6.0
2015-Jul-21 15:33N 36°51' W 008°11'3 3.3
2015-Jul-21 14:33N 36°54' W 008°09'1 1.2
2015-Jul-21 13:29N 36°55' W 008°10'5 4.7
2015-Jul-21 12:28N 36°59' W 008°08'4 4.4
2015-Jul-21 11:33N 37°03' W 008°08'1 1.2
2015-Jul-21 10:32N 37°05' W 008°07'1 0.0
2015-Jul-20 06:12N 37°04' W 008°07'3 5.2
2015-Jul-20 05:32N 37°03' W 008°12'6 6.1
2015-Jul-20 04:32N 37°01' W 008°19'5 5.2
2015-Jul-20 03:31N 36°59' W 008°25'4 4.0
2015-Jul-20 02:30N 36°58' W 008°30'5 5.3
2015-Jul-20 01:29N 36°55' W 008°36'7 7.3
2015-Jul-20 00:29N 36°53' W 008°44'15 7.5
2015-Jul-19 22:33N 36°46' W 009°00'32 7.8
2015-Jul-19 18:23N 36°26' W 009°33'  
2015-Jul-17 05:18N 33°10' W 015°34'  

Dump ship's entire track history